createdAt,value
2023-03-16T00:00:23.883Z,82.15
2023-03-16T00:03:20.486Z,81.82
2023-03-16T00:05:51.653Z,81.30
2023-03-16T00:08:20.642Z,81.25
2023-03-16T00:10:49.317Z,80.96
2023-03-16T00:13:23.900Z,80.36
2023-03-16T00:15:58.856Z,81.40
2023-03-16T00:18:28.937Z,81.49
2023-03-16T00:21:02.226Z,81.67
2023-03-16T00:23:35.804Z,81.75
2023-03-16T00:26:07.850Z,81.86
2023-03-16T00:28:37.094Z,82.19
2023-03-16T00:31:08.144Z,82.15
2023-03-16T00:33:36.862Z,81.97
2023-03-16T00:36:09.641Z,81.89
2023-03-16T00:38:46.740Z,81.64
2023-03-16T00:41:17.062Z,82.03
2023-03-16T00:43:45.840Z,81.82
2023-03-16T00:46:16.647Z,82.25
2023-03-16T00:48:47.186Z,82.23
2023-03-16T00:51:18.338Z,82.77
2023-03-16T00:53:47.370Z,82.70
2023-03-16T00:56:17.150Z,82.32
2023-03-16T00:58:46.056Z,82.47
2023-03-16T01:01:18.923Z,82.27
2023-03-16T01:03:47.783Z,82.66
2023-03-16T01:06:20.502Z,82.85
2023-03-16T01:08:49.613Z,82.77
2023-03-16T01:11:20.939Z,82.72
2023-03-16T01:13:54.319Z,83.67
2023-03-16T01:16:25.707Z,83.69
2023-03-16T01:18:54.518Z,83.79
2023-03-16T01:21:23.405Z,84.23
2023-03-16T01:23:53.815Z,84.30
2023-03-16T01:26:25.212Z,83.96
2023-03-16T01:28:55.076Z,83.36
2023-03-16T01:31:24.253Z,83.04
2023-03-16T01:33:53.089Z,83.12
2023-03-16T01:36:21.945Z,83.24
2023-03-16T01:38:51.143Z,83.28
2023-03-16T01:41:19.911Z,83.58
2023-03-16T01:43:48.633Z,84.08
2023-03-16T01:46:23.638Z,84.35
2023-03-16T01:49:08.234Z,84.15
2023-03-16T01:51:43.959Z,83.46
2023-03-16T01:54:35.826Z,83.91
2023-03-16T01:57:15.522Z,84.13
2023-03-16T01:59:55.234Z,84.51
2023-03-16T02:02:27.373Z,84.61
2023-03-16T02:05:15.523Z,85.07
2023-03-16T02:07:47.757Z,85.10
2023-03-16T02:10:19.177Z,84.86
2023-03-16T02:12:47.902Z,85.16
2023-03-16T02:15:16.663Z,85.72
2023-03-16T02:17:47.133Z,85.83
2023-03-16T02:20:28.319Z,84.95
2023-03-16T02:22:58.131Z,85.06
2023-03-16T02:25:39.757Z,84.09
2023-03-16T02:28:25.204Z,84.61
2023-03-16T02:30:55.723Z,84.60
2023-03-16T02:33:26.065Z,85.01
2023-03-16T02:35:54.847Z,84.98
2023-03-16T02:38:23.809Z,85.02
2023-03-16T02:41:10.167Z,85.56
2023-03-16T02:43:43.259Z,85.20
2023-03-16T02:46:12.462Z,85.20
2023-03-16T02:48:49.451Z,84.68
2023-03-16T02:51:18.165Z,84.52
2023-03-16T02:53:46.822Z,84.23
2023-03-16T02:56:15.647Z,84.21
2023-03-16T02:58:44.719Z,84.09
2023-03-16T03:01:13.548Z,84.00
2023-03-16T03:03:42.271Z,84.29
2023-03-16T03:06:11.229Z,83.76
2023-03-16T03:08:40.038Z,84.22
2023-03-16T03:11:09.621Z,84.68
2023-03-16T03:13:39.322Z,83.78
2023-03-16T03:16:08.212Z,83.24
2023-03-16T03:18:36.976Z,83.62
2023-03-16T03:21:06.107Z,84.00
2023-03-16T03:23:35.524Z,83.68
2023-03-16T03:26:04.478Z,83.74
2023-03-16T03:28:36.216Z,83.94
2023-03-16T03:31:05.051Z,84.34
2023-03-16T03:33:33.930Z,84.40
2023-03-16T03:36:02.748Z,84.82
2023-03-16T03:38:31.477Z,85.49
2023-03-16T03:41:00.483Z,85.36
2023-03-16T03:43:29.201Z,84.71
2023-03-16T03:45:59.503Z,84.31
2023-03-16T03:48:28.804Z,84.44
2023-03-16T03:50:57.750Z,84.46
2023-03-16T03:53:26.451Z,84.15
2023-03-16T03:55:55.198Z,85.04
2023-03-16T03:58:24.284Z,84.92
2023-03-16T04:00:53.122Z,84.70
2023-03-16T04:03:21.933Z,85.24
2023-03-16T04:05:51.737Z,84.77
2023-03-16T04:08:20.635Z,85.28
2023-03-16T04:10:49.630Z,85.10
2023-03-16T04:13:18.301Z,84.65
2023-03-16T04:15:47.051Z,84.95
2023-03-16T04:18:15.706Z,84.90
2023-03-16T04:20:44.398Z,85.27
2023-03-16T04:23:14.093Z,84.82
2023-03-16T04:25:43.261Z,85.50
2023-03-16T04:28:12.020Z,85.27
2023-03-16T04:30:43.132Z,85.19
2023-03-16T04:33:11.922Z,85.45
2023-03-16T04:35:41.648Z,85.16
2023-03-16T04:38:12.223Z,84.74
2023-03-16T04:40:40.978Z,84.10
2023-03-16T04:43:09.650Z,83.63
2023-03-16T04:45:38.310Z,83.84
2023-03-16T04:48:10.398Z,84.21
2023-03-16T04:50:39.237Z,84.79
2023-03-16T04:53:08.004Z,84.95
2023-03-16T04:55:36.798Z,85.38
2023-03-16T04:58:05.582Z,85.52
2023-03-16T05:00:34.288Z,85.52
2023-03-16T05:03:04.277Z,85.64
2023-03-16T05:05:35.013Z,84.89
2023-03-16T05:08:06.064Z,84.12
2023-03-16T05:10:35.394Z,84.80
2023-03-16T05:13:04.758Z,85.38
2023-03-16T05:15:34.109Z,85.61
2023-03-16T05:18:02.948Z,85.25
2023-03-16T05:20:31.605Z,85.62
2023-03-16T05:23:00.292Z,86.04
2023-03-16T05:25:29.258Z,86.41
2023-03-16T05:27:57.991Z,86.25
2023-03-16T05:30:27.004Z,85.49
2023-03-16T05:32:58.112Z,85.71
2023-03-16T05:35:28.152Z,85.65
2023-03-16T05:37:57.231Z,85.36
2023-03-16T05:40:26.566Z,85.49
2023-03-16T05:42:57.252Z,86.09
2023-03-16T05:45:26.550Z,85.46
2023-03-16T05:47:55.349Z,85.60
2023-03-16T05:50:24.259Z,85.33
2023-03-16T05:52:53.006Z,85.06
2023-03-16T05:55:24.663Z,84.64
2023-03-16T05:57:53.402Z,84.20
2023-03-16T06:00:22.848Z,83.98
2023-03-16T06:02:52.130Z,83.64
2023-03-16T06:05:21.983Z,83.56
2023-03-16T06:07:51.798Z,83.43
2023-03-16T06:10:20.953Z,83.16
2023-03-16T06:12:49.770Z,83.02
2023-03-16T06:15:18.829Z,82.92
2023-03-16T06:17:48.804Z,82.34
2023-03-16T06:20:17.770Z,81.65
2023-03-16T06:22:46.731Z,81.30
2023-03-16T06:25:16.108Z,81.17
2023-03-16T06:27:44.944Z,81.10
2023-03-16T06:30:14.172Z,80.92
2023-03-16T06:32:43.125Z,81.13
2023-03-16T06:35:13.147Z,80.80
2023-03-16T06:37:41.980Z,80.29
2023-03-16T06:40:11.742Z,80.55
2023-03-16T06:42:40.574Z,80.01
2023-03-16T06:45:11.359Z,79.15
2023-03-16T06:47:40.082Z,78.78
2023-03-16T06:50:10.229Z,78.58
2023-03-16T06:52:39.140Z,77.92
2023-03-16T06:55:08.525Z,78.11
2023-03-16T06:57:37.235Z,77.75
2023-03-16T07:00:07.437Z,77.39
2023-03-16T07:02:36.203Z,76.61
2023-03-16T07:05:25.445Z,76.38
2023-03-16T07:07:54.507Z,75.20
2023-03-16T07:10:24.613Z,75.07
2023-03-16T07:12:54.075Z,75.72
2023-03-16T07:15:25.612Z,74.57
2023-03-16T07:17:54.508Z,74.50
2023-03-16T07:20:23.871Z,73.75
2023-03-16T07:22:52.789Z,72.99
2023-03-16T07:25:21.460Z,72.46
2023-03-16T07:27:50.240Z,71.52
2023-03-16T07:30:19.207Z,69.64
2023-03-16T07:32:47.988Z,68.72
2023-03-16T07:35:17.310Z,67.25
2023-03-16T07:37:46.077Z,66.03
2023-03-16T07:40:15.157Z,64.36
2023-03-16T07:42:44.212Z,63.92
2023-03-16T07:45:14.483Z,63.05
2023-03-16T07:47:44.170Z,62.04
2023-03-16T07:50:15.649Z,61.30
2023-03-16T07:52:46.145Z,60.61
2023-03-16T07:55:16.121Z,60.22
2023-03-16T07:57:47.929Z,59.78
2023-03-16T08:00:17.310Z,59.73
2023-03-16T08:02:46.163Z,59.40
2023-03-16T08:05:16.282Z,58.75
2023-03-16T08:07:45.393Z,58.06
2023-03-16T08:10:14.948Z,57.67
2023-03-16T08:12:43.923Z,57.03
2023-03-16T08:15:12.774Z,57.56
2023-03-16T08:17:41.913Z,57.01
2023-03-16T08:20:13.966Z,56.23
2023-03-16T08:22:46.467Z,55.79
2023-03-16T08:25:15.644Z,55.21
2023-03-16T08:27:44.656Z,55.01
2023-03-16T08:30:15.059Z,55.43
2023-03-16T08:32:43.976Z,53.96
2023-03-16T08:35:14.914Z,54.89
2023-03-16T08:37:44.078Z,54.76
2023-03-16T08:40:17.165Z,54.24
2023-03-16T08:42:46.461Z,54.35
2023-03-16T08:45:15.623Z,54.50
2023-03-16T08:47:44.599Z,54.64
2023-03-16T08:50:13.527Z,54.18
2023-03-16T08:52:42.952Z,53.95
2023-03-16T08:55:13.273Z,54.39
2023-03-16T08:57:45.112Z,54.85
2023-03-16T09:00:15.215Z,54.07
2023-03-16T09:02:44.528Z,53.64
2023-03-16T09:05:16.176Z,54.28
2023-03-16T09:07:47.122Z,54.04
2023-03-16T09:10:19.095Z,55.02
2023-03-16T09:12:47.877Z,54.89
2023-03-16T09:15:16.728Z,55.46
2023-03-16T09:17:46.691Z,56.47
2023-03-16T09:20:22.787Z,55.96
2023-03-16T09:22:56.536Z,56.46
2023-03-16T09:25:26.207Z,56.93
2023-03-16T09:27:55.866Z,56.90
2023-03-16T09:30:25.301Z,56.95
2023-03-16T09:32:54.563Z,57.04
2023-03-16T09:35:23.813Z,57.65
2023-03-16T09:38:05.725Z,57.75
2023-03-16T09:40:37.287Z,57.66
2023-03-16T09:43:07.252Z,56.80
2023-03-16T09:45:46.511Z,57.35
2023-03-16T09:48:18.620Z,55.80
2023-03-16T09:50:49.788Z,55.79
2023-03-16T09:53:39.708Z,56.11
2023-03-16T09:56:18.470Z,55.21
2023-03-16T09:58:51.047Z,54.87
2023-03-16T10:01:35.824Z,53.97
2023-03-16T10:04:07.593Z,53.22
2023-03-16T10:06:51.795Z,53.13
2023-03-16T10:09:31.999Z,52.24
2023-03-16T10:12:03.881Z,51.14
2023-03-16T10:14:41.521Z,51.45
2023-03-16T10:17:25.667Z,49.99
2023-03-16T10:19:58.831Z,49.02
2023-03-16T10:22:32.768Z,48.73
2023-03-16T10:25:22.154Z,48.31
2023-03-16T10:27:52.414Z,48.51
2023-03-16T10:30:28.310Z,48.97
2023-03-16T10:33:14.146Z,50.62
2023-03-16T10:35:47.369Z,51.30
2023-03-16T10:38:40.669Z,49.72
2023-03-16T10:41:19.180Z,48.07
2023-03-16T10:44:09.088Z,46.08
2023-03-16T10:46:44.165Z,45.29
2023-03-16T10:49:27.354Z,44.58
2023-03-16T10:52:03.152Z,44.31
2023-03-16T10:54:39.230Z,43.13
2023-03-16T10:57:41.546Z,42.85
2023-03-16T11:00:16.352Z,42.62
2023-03-16T11:02:45.769Z,40.92
2023-03-16T11:05:27.286Z,39.90
2023-03-16T11:08:02.812Z,39.13
2023-03-16T11:10:40.493Z,37.33
2023-03-16T11:13:17.899Z,37.50
2023-03-16T11:16:05.290Z,37.47
2023-03-16T11:18:54.444Z,37.42
2023-03-16T11:21:50.946Z,37.88
2023-03-16T11:24:30.102Z,37.33
2023-03-16T11:27:03.561Z,38.31
2023-03-16T11:29:45.232Z,38.60
2023-03-16T11:32:20.777Z,38.51
2023-03-16T11:34:53.112Z,37.98
2023-03-16T11:37:32.357Z,37.84
2023-03-16T11:40:12.448Z,38.18
2023-03-16T11:42:58.996Z,37.49
2023-03-16T11:45:43.301Z,36.71
2023-03-16T11:48:31.334Z,35.58
2023-03-16T11:51:29.673Z,35.57
2023-03-16T11:54:16.300Z,36.29
2023-03-16T11:56:52.862Z,35.96
2023-03-16T12:00:03.933Z,37.66
2023-03-16T12:03:14.811Z,39.29
2023-03-16T12:06:13.569Z,39.12
2023-03-16T12:09:12.510Z,39.34
2023-03-16T12:12:17.369Z,40.34
2023-03-16T12:14:58.538Z,38.84
2023-03-16T12:17:32.233Z,38.72
2023-03-16T12:20:14.079Z,39.08
2023-03-16T12:22:59.093Z,39.57
2023-03-16T12:25:39.674Z,39.23
2023-03-16T12:28:39.992Z,38.35
2023-03-16T12:31:14.230Z,37.16
2023-03-16T12:34:16.735Z,36.89
2023-03-16T12:37:05.016Z,37.01
2023-03-16T12:40:09.259Z,36.21
2023-03-16T12:42:52.953Z,35.35
2023-03-16T12:45:44.579Z,35.74
2023-03-16T12:48:25.187Z,36.00
2023-03-16T12:50:58.592Z,36.18
2023-03-16T12:53:54.689Z,35.45
2023-03-16T12:56:37.452Z,35.39
2023-03-16T12:59:07.724Z,35.97
2023-03-16T13:01:44.721Z,36.69
2023-03-16T13:04:24.548Z,35.38
2023-03-16T13:07:05.226Z,34.84
2023-03-16T13:09:42.158Z,34.57
2023-03-16T13:12:36.883Z,34.23
2023-03-16T13:15:19.911Z,34.52
2023-03-16T13:18:03.513Z,35.26
2023-03-16T13:20:35.598Z,38.06
2023-03-16T13:23:18.229Z,39.17
2023-03-16T13:26:24.905Z,38.16
2023-03-16T13:28:55.746Z,36.93
2023-03-16T13:31:30.593Z,37.08
2023-03-16T13:34:00.841Z,37.29
2023-03-16T13:36:31.859Z,37.87
2023-03-16T13:39:13.692Z,37.95
2023-03-16T13:41:43.575Z,37.69
2023-03-16T13:44:15.333Z,38.51
2023-03-16T13:46:49.581Z,39.44
2023-03-16T13:49:19.649Z,40.11
2023-03-16T13:51:49.614Z,39.99
2023-03-16T13:54:31.758Z,39.66
2023-03-16T13:57:04.302Z,38.05
2023-03-16T13:59:33.516Z,37.73
2023-03-16T14:02:02.887Z,37.68
2023-03-16T14:04:34.080Z,37.79
2023-03-16T14:07:03.859Z,36.84
2023-03-16T14:09:35.868Z,36.38
2023-03-16T14:12:04.943Z,36.79
2023-03-16T14:14:41.560Z,36.63
2023-03-16T14:17:18.328Z,36.53
2023-03-16T14:19:58.824Z,36.87
2023-03-16T14:22:37.200Z,37.07
2023-03-16T14:25:06.811Z,36.62
2023-03-16T14:27:47.010Z,37.20
2023-03-16T14:30:27.326Z,37.41
2023-03-16T14:33:01.935Z,37.40
2023-03-16T14:35:43.029Z,37.26
2023-03-16T14:38:41.811Z,38.17
2023-03-16T14:41:20.614Z,37.87
2023-03-16T14:43:53.035Z,37.62
2023-03-16T14:46:42.467Z,38.19
2023-03-16T14:49:33.185Z,38.75
2023-03-16T14:52:07.340Z,38.40
2023-03-16T14:54:36.787Z,38.30
2023-03-16T14:57:06.155Z,38.08
2023-03-16T14:59:34.999Z,38.62
2023-03-16T15:02:13.333Z,38.80
2023-03-16T15:04:43.115Z,39.13
2023-03-16T15:07:28.579Z,39.92
2023-03-16T15:10:19.470Z,40.53
2023-03-16T15:12:54.675Z,40.43
2023-03-16T15:15:25.152Z,40.33
2023-03-16T15:17:54.070Z,40.50
2023-03-16T15:20:29.823Z,40.86
2023-03-16T15:22:59.890Z,40.61
2023-03-16T15:25:41.320Z,40.99
2023-03-16T15:28:21.257Z,41.87
2023-03-16T15:31:02.163Z,41.70
2023-03-16T15:33:32.089Z,42.16
2023-03-16T15:36:07.132Z,42.53
2023-03-16T15:38:40.010Z,43.01
2023-03-16T15:41:12.218Z,43.28
2023-03-16T15:43:40.963Z,44.39
2023-03-16T15:46:10.439Z,44.12
2023-03-16T15:48:39.662Z,44.67
2023-03-16T15:51:23.060Z,45.77
2023-03-16T15:54:02.236Z,45.75
2023-03-16T15:56:44.057Z,45.94
2023-03-16T15:59:22.070Z,46.40
2023-03-16T16:01:52.430Z,46.95
2023-03-16T16:04:23.603Z,47.74
2023-03-16T16:06:56.997Z,47.28
2023-03-16T16:09:25.790Z,48.73
2023-03-16T16:11:54.586Z,49.31
2023-03-16T16:14:26.556Z,50.19
2023-03-16T16:16:55.568Z,50.17
2023-03-16T16:19:30.136Z,50.05
2023-03-16T16:22:06.804Z,49.43
2023-03-16T16:24:35.558Z,53.83
2023-03-16T16:27:04.753Z,53.56
2023-03-16T16:29:35.018Z,55.12
2023-03-16T16:32:04.321Z,56.75
2023-03-16T16:34:33.369Z,57.88
2023-03-16T16:37:03.720Z,58.81
2023-03-16T16:39:35.800Z,59.79
2023-03-16T16:42:05.162Z,59.91
2023-03-16T16:44:37.575Z,60.63
2023-03-16T16:47:20.099Z,61.84
2023-03-16T16:49:50.034Z,62.04
2023-03-16T16:52:19.970Z,62.99
2023-03-16T16:54:48.695Z,62.91
2023-03-16T16:57:20.246Z,63.36
2023-03-16T16:59:49.398Z,63.67
2023-03-16T17:02:29.473Z,63.57
2023-03-16T17:04:59.035Z,64.34
2023-03-16T17:07:28.087Z,64.74
2023-03-16T17:09:57.449Z,65.14
2023-03-16T17:12:26.746Z,65.09
2023-03-16T17:14:55.624Z,64.98
2023-03-16T17:17:24.433Z,65.05
2023-03-16T17:19:53.261Z,64.86
2023-03-16T17:22:24.848Z,65.10
2023-03-16T17:24:55.484Z,65.73
2023-03-16T17:27:31.397Z,66.36
2023-03-16T17:30:00.256Z,66.41
2023-03-16T17:32:29.250Z,66.79
2023-03-16T17:34:57.918Z,67.26
2023-03-16T17:37:26.661Z,67.08
2023-03-16T17:39:57.514Z,67.72
2023-03-16T17:42:27.109Z,68.16
2023-03-16T17:44:56.343Z,68.55
2023-03-16T17:47:27.554Z,68.43
2023-03-16T17:49:57.016Z,68.94
2023-03-16T17:52:29.200Z,68.69
2023-03-16T17:54:58.155Z,68.58
2023-03-16T17:57:31.964Z,68.86
2023-03-16T18:00:02.618Z,68.92
2023-03-16T18:02:49.707Z,69.36
2023-03-16T18:05:23.688Z,69.34
2023-03-16T18:07:56.682Z,70.23
2023-03-16T18:10:33.205Z,70.97
2023-03-16T18:13:07.088Z,71.12
2023-03-16T18:15:36.633Z,71.12
2023-03-16T18:18:08.053Z,71.23
2023-03-16T18:20:37.653Z,70.92
2023-03-16T18:23:15.360Z,70.54
2023-03-16T18:25:45.793Z,72.25
2023-03-16T18:28:18.966Z,72.68
2023-03-16T18:30:52.853Z,72.22
2023-03-16T18:33:32.657Z,71.55
2023-03-16T18:36:04.933Z,70.93
2023-03-16T18:38:35.805Z,70.23
2023-03-16T18:41:24.407Z,70.33
2023-03-16T18:43:56.822Z,70.84
2023-03-16T18:46:37.281Z,71.83
2023-03-16T18:49:16.320Z,72.11
2023-03-16T18:51:50.450Z,72.46
2023-03-16T18:54:22.608Z,72.35
2023-03-16T18:56:53.866Z,72.27
2023-03-16T18:59:22.847Z,72.73
2023-03-16T19:01:52.213Z,72.78
2023-03-16T19:04:28.217Z,72.95
2023-03-16T19:06:57.746Z,73.13
2023-03-16T19:09:32.103Z,73.68
2023-03-16T19:12:03.062Z,74.44
2023-03-16T19:14:33.412Z,74.15
2023-03-16T19:17:02.278Z,74.60
2023-03-16T19:19:31.044Z,74.46
2023-03-16T19:22:09.889Z,74.98
2023-03-16T19:24:50.427Z,75.44
2023-03-16T19:27:38.323Z,75.54
2023-03-16T19:30:20.001Z,75.02
2023-03-16T19:32:51.284Z,75.52
2023-03-16T19:35:21.111Z,75.24
2023-03-16T19:37:50.796Z,74.28
2023-03-16T19:40:23.763Z,74.65
2023-03-16T19:42:52.629Z,75.23
2023-03-16T19:45:31.015Z,75.77
2023-03-16T19:48:01.009Z,76.13
2023-03-16T19:52:45.375Z,75.58
2023-03-16T19:55:17.298Z,76.26
2023-03-16T19:57:48.124Z,76.64
2023-03-16T20:00:20.372Z,76.58
2023-03-16T20:02:49.338Z,76.96
2023-03-16T20:05:21.525Z,77.39
2023-03-16T20:07:50.690Z,77.54
2023-03-16T20:10:28.836Z,76.97
2023-03-16T20:13:00.478Z,76.81
2023-03-16T20:15:32.682Z,76.88
2023-03-16T20:18:02.181Z,76.87
2023-03-16T20:20:35.886Z,76.57
2023-03-16T20:23:16.674Z,76.98
2023-03-16T20:25:46.652Z,77.12
2023-03-16T20:28:24.378Z,76.39
2023-03-16T20:30:53.693Z,76.05
2023-03-16T20:33:25.676Z,76.08
2023-03-16T20:35:55.409Z,76.61
2023-03-16T20:38:24.338Z,76.55
2023-03-16T20:40:54.617Z,77.01
2023-03-16T20:43:32.005Z,77.19
2023-03-16T20:46:04.364Z,77.61
2023-03-16T20:48:34.152Z,77.57
2023-03-16T20:51:03.224Z,77.58
2023-03-16T20:53:32.391Z,77.53
2023-03-16T20:56:01.732Z,77.24
2023-03-16T20:58:35.710Z,76.85
2023-03-16T21:01:05.686Z,77.30
2023-03-16T21:03:34.780Z,77.64
2023-03-16T21:06:13.180Z,78.04
2023-03-16T21:08:42.250Z,78.26
2023-03-16T21:11:21.414Z,78.46
2023-03-16T21:13:50.943Z,78.91
2023-03-16T21:16:21.785Z,78.56
2023-03-16T21:18:51.247Z,78.67
2023-03-16T21:21:20.551Z,78.54
2023-03-16T21:23:49.351Z,78.78
2023-03-16T21:26:22.153Z,79.59
2023-03-16T21:28:56.608Z,78.88
2023-03-16T21:31:27.160Z,79.00
2023-03-16T21:33:56.250Z,78.67
2023-03-16T21:36:28.523Z,78.49
2023-03-16T21:38:57.452Z,77.90
2023-03-16T21:41:26.253Z,77.69
2023-03-16T21:43:57.543Z,77.68
2023-03-16T21:46:27.034Z,78.53
2023-03-16T21:48:56.566Z,78.88
2023-03-16T21:51:33.095Z,78.71
2023-03-16T21:54:02.003Z,78.50
2023-03-16T21:56:34.151Z,78.68
2023-03-16T21:59:03.261Z,78.80
2023-03-16T22:01:34.122Z,78.94
2023-03-16T22:04:12.859Z,79.26
2023-03-16T22:06:43.494Z,78.94
2023-03-16T22:09:19.359Z,79.08
2023-03-16T22:11:48.383Z,79.44
2023-03-16T22:14:17.336Z,79.39
2023-03-16T22:16:46.617Z,79.25
2023-03-16T22:19:17.753Z,78.47
2023-03-16T22:21:47.320Z,78.53
2023-03-16T22:24:19.556Z,79.24
2023-03-16T22:26:50.208Z,79.57
2023-03-16T22:29:25.471Z,79.43
2023-03-16T22:32:07.605Z,79.72
2023-03-16T22:34:52.588Z,80.02
2023-03-16T22:37:26.080Z,79.69
2023-03-16T22:39:57.393Z,79.81
2023-03-16T22:42:30.443Z,80.10
2023-03-16T22:44:59.922Z,79.90
2023-03-16T22:47:32.645Z,80.19
2023-03-16T22:50:01.779Z,79.73
2023-03-16T22:52:35.364Z,79.99
2023-03-16T22:55:05.703Z,80.25
2023-03-16T22:57:34.609Z,80.23
2023-03-16T23:00:07.418Z,80.17
2023-03-16T23:02:36.168Z,80.50
2023-03-16T23:05:26.379Z,80.57
2023-03-16T23:07:56.051Z,80.39
2023-03-16T23:10:28.450Z,80.46
2023-03-16T23:12:59.660Z,80.53
2023-03-16T23:15:30.528Z,80.57
2023-03-16T23:17:59.482Z,80.29
2023-03-16T23:20:31.946Z,80.40
2023-03-16T23:23:00.880Z,80.60
2023-03-16T23:25:29.555Z,80.64
2023-03-16T23:28:03.453Z,80.86
2023-03-16T23:30:32.744Z,80.89
2023-03-16T23:33:02.075Z,81.23
2023-03-16T23:35:31.904Z,80.81
2023-03-16T23:38:00.617Z,81.07
2023-03-16T23:40:30.003Z,80.85
2023-03-16T23:43:00.799Z,81.01
2023-03-16T23:45:42.126Z,80.83
2023-03-16T23:48:15.348Z,80.54
2023-03-16T23:50:45.342Z,80.14
2023-03-16T23:53:17.548Z,80.32
2023-03-16T23:55:47.099Z,80.13
2023-03-16T23:58:18.877Z,80.45
